Port Colborne, Canada
Current Conditions -  °F | °C
As of 4:53 AM on Thursday 29 Jan 2015 (Local Time) from KIAG Reporting Station
Overcast Overcast  
Wind Chill: -14°   Ceiling: 11000
Heat Index: -9°   Visibility: 10mi
Dew Point: -14°   Wind: 6mph
Humidity: 70%   Direction: 120°ESE
Pressure: 30.16"   Gusts: NA
Location:  42.89°N, 79.25°W
Report Text: KIAG 290953Z AUTO 12005KT 10SM OVC110 M09/M14 A3016 RMK AO2 SLP234 T10941139
Loading
Personal Weather Stations






























Interactive Weather Map New forecast layout! Learn more

10-Day Weather Forecast

Advertisements
Track Severe Weather on mobile